Portada
METAR-TAF:

METAR-TAF

Aeropuertos :

Chongqing, China

Aeropuerto Internacional de Chongqing-Jiangbei

latitud: 29-31N, longitud: 106-29E, altitud: 351 m

Observación

El informe se hizo hace 47 minutos, a las 20:00 UTC
Viento 2 kt con dirección variable
Temperatura 27°C
Humedad 84%
Presión 1004 hPa
Visibilidad 10 km o más
Nubes dispersas a una altura de 3300 ft

METAR: ZUCK 242000Z VRB01MPS 9999 SCT033 27/24 Q1004 RETS NOSIG

Hora: 04:47 (20:47 UTC)

Pronóstico

El informe se hizo hace 5 horas y 32 minutos, a las 15:15 UTC
Pronóstico válido del 24 a las 18 UTC al 25 a las 18 UTC
Viento 6 kt del este-noreste
Visibilidad: 6000 m
Nubes dispersas a una altura de 5000 ft

TAF: ZUCK 241515Z 2418/2518 06003MPS 6000 SCT050 TX39/2508Z TN27/2421Z

Observaciones y pronósticos meteorológicos de más de 4000 aeropuertos (mensajes METAR y TAF).

Los puntos amarillos y rojos representan las estaciones disponibles.

Ponga el ratón en el punto deseado para ver el nombre de la estación.

Haga clic para ver las observaciones y los pronósticos meteorológicos.

Para cambiar el mapa : haga clic en los botones verdes con una cruz de color negro para hacer un zoom, en el botón verde con un guión para alejar o en las flechas verdes para mapas adyacentes.


METAR-TAF: